sensor_id;sensor_type;location;lat;lon;timestamp;P1;durP1;ratioP1;P2;durP2;ratioP2
26157;SDS011;67284;44.782;10.282;2023-04-30T00:04:25;44.67;;;32.20;;
26157;SDS011;67284;44.782;10.282;2023-04-30T00:09:16;41.45;;;31.88;;
26157;SDS011;67284;44.782;10.282;2023-04-30T00:14:08;44.35;;;32.28;;
26157;SDS011;67284;44.782;10.282;2023-04-30T00:19:00;43.20;;;32.00;;
26157;SDS011;67284;44.782;10.282;2023-04-30T00:23:52;45.10;;;31.33;;
26157;SDS011;67284;44.782;10.282;2023-04-30T00:28:44;48.78;;;34.05;;
26157;SDS011;67284;44.782;10.282;2023-04-30T00:33:36;40.50;;;30.42;;
26157;SDS011;67284;44.782;10.282;2023-04-30T00:38:28;44.65;;;32.03;;
26157;SDS011;67284;44.782;10.282;2023-04-30T00:43:19;37.15;;;30.15;;
26157;SDS011;67284;44.782;10.282;2023-04-30T00:48:11;40.47;;;32.00;;
26157;SDS011;67284;44.782;10.282;2023-04-30T00:53:03;41.47;;;30.15;;
26157;SDS011;67284;44.782;10.282;2023-04-30T00:57:55;38.13;;;28.50;;
26157;SDS011;67284;44.782;10.282;2023-04-30T01:02:47;41.63;;;29.73;;
26157;SDS011;67284;44.782;10.282;2023-04-30T01:07:40;39.97;;;30.77;;
26157;SDS011;67284;44.782;10.282;2023-04-30T01:17:38;35.75;;;27.90;;
26157;SDS011;67284;44.782;10.282;2023-04-30T01:22:45;37.63;;;27.88;;
26157;SDS011;67284;44.782;10.282;2023-04-30T01:33:07;39.05;;;28.90;;
26157;SDS011;67284;44.782;10.282;2023-04-30T01:43:28;41.53;;;27.92;;
26157;SDS011;67284;44.782;10.282;2023-04-30T01:53:59;40.47;;;30.33;;
26157;SDS011;67284;44.782;10.282;2023-04-30T01:58:55;37.93;;;29.20;;
26157;SDS011;67284;44.782;10.282;2023-04-30T02:03:47;39.65;;;29.15;;
26157;SDS011;67284;44.782;10.282;2023-04-30T02:08:39;40.67;;;30.70;;
26157;SDS011;67284;44.782;10.282;2023-04-30T02:13:31;40.17;;;30.70;;
26157;SDS011;67284;44.782;10.282;2023-04-30T02:18:23;40.13;;;29.98;;
26157;SDS011;67284;44.782;10.282;2023-04-30T02:23:15;38.33;;;28.63;;
26157;SDS011;67284;44.782;10.282;2023-04-30T02:28:07;37.97;;;28.75;;
26157;SDS011;67284;44.782;10.282;2023-04-30T02:32:58;42.05;;;28.83;;
26157;SDS011;67284;44.782;10.282;2023-04-30T02:37:50;41.72;;;29.38;;
26157;SDS011;67284;44.782;10.282;2023-04-30T02:42:42;43.88;;;30.90;;
26157;SDS011;67284;44.782;10.282;2023-04-30T02:47:34;36.00;;;28.75;;
26157;SDS011;67284;44.782;10.282;2023-04-30T02:52:26;39.63;;;29.98;;
26157;SDS011;67284;44.782;10.282;2023-04-30T02:57:18;36.63;;;28.45;;
26157;SDS011;67284;44.782;10.282;2023-04-30T03:02:10;42.22;;;31.17;;
26157;SDS011;67284;44.782;10.282;2023-04-30T03:07:04;43.20;;;31.83;;
26157;SDS011;67284;44.782;10.282;2023-04-30T03:11:58;44.83;;;33.35;;
26157;SDS011;67284;44.782;10.282;2023-04-30T03:16:50;45.40;;;30.50;;
26157;SDS011;67284;44.782;10.282;2023-04-30T03:21:42;42.40;;;30.33;;
26157;SDS011;67284;44.782;10.282;2023-04-30T03:26:33;50.83;;;35.63;;
26157;SDS011;67284;44.782;10.282;2023-04-30T03:31:25;48.38;;;34.40;;
26157;SDS011;67284;44.782;10.282;2023-04-30T03:36:17;49.85;;;36.13;;
26157;SDS011;67284;44.782;10.282;2023-04-30T03:41:09;49.28;;;35.90;;
26157;SDS011;67284;44.782;10.282;2023-04-30T03:46:01;50.67;;;35.72;;
26157;SDS011;67284;44.782;10.282;2023-04-30T03:50:53;52.83;;;36.35;;
26157;SDS011;67284;44.782;10.282;2023-04-30T03:55:45;53.53;;;36.72;;
26157;SDS011;67284;44.782;10.282;2023-04-30T04:00:38;52.60;;;35.47;;
26157;SDS011;67284;44.782;10.282;2023-04-30T04:05:32;54.55;;;36.97;;
26157;SDS011;67284;44.782;10.282;2023-04-30T04:10:24;51.50;;;36.50;;
26157;SDS011;67284;44.782;10.282;2023-04-30T04:15:16;48.88;;;35.58;;
26157;SDS011;67284;44.782;10.282;2023-04-30T04:20:08;56.88;;;35.25;;
26157;SDS011;67284;44.782;10.282;2023-04-30T04:25:04;64.68;;;40.80;;
26157;SDS011;67284;44.782;10.282;2023-04-30T04:29:59;63.55;;;42.38;;
26157;SDS011;67284;44.782;10.282;2023-04-30T04:34:52;58.17;;;38.53;;
26157;SDS011;67284;44.782;10.282;2023-04-30T04:39:44;63.05;;;40.95;;
26157;SDS011;67284;44.782;10.282;2023-04-30T04:44:37;66.90;;;40.72;;
26157;SDS011;67284;44.782;10.282;2023-04-30T04:49:29;63.10;;;37.53;;
26157;SDS011;67284;44.782;10.282;2023-04-30T04:54:21;57.53;;;37.97;;
26157;SDS011;67284;44.782;10.282;2023-04-30T04:59:12;59.17;;;35.00;;
26157;SDS011;67284;44.782;10.282;2023-04-30T05:04:04;62.05;;;36.20;;
26157;SDS011;67284;44.782;10.282;2023-04-30T05:08:56;58.92;;;37.38;;
26157;SDS011;67284;44.782;10.282;2023-04-30T05:13:48;62.15;;;38.30;;
26157;SDS011;67284;44.782;10.282;2023-04-30T05:18:40;57.55;;;34.22;;
26157;SDS011;67284;44.782;10.282;2023-04-30T05:23:32;62.33;;;36.78;;
26157;SDS011;67284;44.782;10.282;2023-04-30T05:28:23;53.40;;;34.83;;
26157;SDS011;67284;44.782;10.282;2023-04-30T05:33:15;59.33;;;36.00;;
26157;SDS011;67284;44.782;10.282;2023-04-30T05:38:07;60.58;;;35.40;;
26157;SDS011;67284;44.782;10.282;2023-04-30T05:42:59;59.05;;;35.67;;
26157;SDS011;67284;44.782;10.282;2023-04-30T05:47:51;54.20;;;33.83;;
26157;SDS011;67284;44.782;10.282;2023-04-30T05:52:43;62.40;;;37.50;;
26157;SDS011;67284;44.782;10.282;2023-04-30T05:57:35;57.63;;;35.50;;
26157;SDS011;67284;44.782;10.282;2023-04-30T06:02:27;54.13;;;32.72;;
26157;SDS011;67284;44.782;10.282;2023-04-30T06:07:19;54.60;;;35.10;;
26157;SDS011;67284;44.782;10.282;2023-04-30T06:12:11;54.28;;;33.13;;
26157;SDS011;67284;44.782;10.282;2023-04-30T06:17:03;53.33;;;33.10;;
26157;SDS011;67284;44.782;10.282;2023-04-30T06:21:55;57.75;;;33.72;;
26157;SDS011;67284;44.782;10.282;2023-04-30T06:26:46;55.70;;;36.45;;
26157;SDS011;67284;44.782;10.282;2023-04-30T06:31:38;49.95;;;31.10;;
26157;SDS011;67284;44.782;10.282;2023-04-30T06:36:30;52.53;;;31.40;;
26157;SDS011;67284;44.782;10.282;2023-04-30T06:41:22;55.83;;;31.88;;
26157;SDS011;67284;44.782;10.282;2023-04-30T06:46:14;52.78;;;29.65;;
26157;SDS011;67284;44.782;10.282;2023-04-30T06:51:06;46.58;;;28.75;;
26157;SDS011;67284;44.782;10.282;2023-04-30T06:56:01;53.28;;;30.90;;
26157;SDS011;67284;44.782;10.282;2023-04-30T07:00:54;50.97;;;29.40;;
26157;SDS011;67284;44.782;10.282;2023-04-30T07:05:46;44.67;;;28.88;;
26157;SDS011;67284;44.782;10.282;2023-04-30T07:10:38;52.83;;;30.38;;
26157;SDS011;67284;44.782;10.282;2023-04-30T07:15:30;50.30;;;30.23;;
26157;SDS011;67284;44.782;10.282;2023-04-30T07:20:22;43.58;;;26.60;;
26157;SDS011;67284;44.782;10.282;2023-04-30T07:25:13;46.85;;;27.70;;
26157;SDS011;67284;44.782;10.282;2023-04-30T07:30:06;48.70;;;27.23;;
26157;SDS011;67284;44.782;10.282;2023-04-30T07:35:02;46.88;;;28.08;;
26157;SDS011;67284;44.782;10.282;2023-04-30T07:39:54;41.08;;;27.63;;
26157;SDS011;67284;44.782;10.282;2023-04-30T07:44:47;41.55;;;27.05;;
26157;SDS011;67284;44.782;10.282;2023-04-30T07:49:39;48.88;;;30.02;;
26157;SDS011;67284;44.782;10.282;2023-04-30T07:54:31;43.00;;;28.80;;
26157;SDS011;67284;44.782;10.282;2023-04-30T07:59:26;39.70;;;26.27;;
26157;SDS011;67284;44.782;10.282;2023-04-30T08:04:18;48.58;;;28.20;;
26157;SDS011;67284;44.782;10.282;2023-04-30T08:09:10;37.15;;;25.00;;
26157;SDS011;67284;44.782;10.282;2023-04-30T08:14:02;31.95;;;21.25;;
26157;SDS011;67284;44.782;10.282;2023-04-30T08:18:55;31.42;;;19.33;;
26157;SDS011;67284;44.782;10.282;2023-04-30T08:23:47;33.08;;;18.77;;
26157;SDS011;67284;44.782;10.282;2023-04-30T08:28:39;28.02;;;18.75;;
26157;SDS011;67284;44.782;10.282;2023-04-30T08:33:31;33.72;;;18.25;;
26157;SDS011;67284;44.782;10.282;2023-04-30T08:38:22;26.58;;;17.60;;
26157;SDS011;67284;44.782;10.282;2023-04-30T08:43:16;25.63;;;16.52;;
26157;SDS011;67284;44.782;10.282;2023-04-30T08:48:09;25.15;;;17.13;;
26157;SDS011;67284;44.782;10.282;2023-04-30T08:53:02;24.42;;;16.60;;
26157;SDS011;67284;44.782;10.282;2023-04-30T08:57:55;27.35;;;18.58;;
26157;SDS011;67284;44.782;10.282;2023-04-30T09:02:47;33.17;;;20.20;;
26157;SDS011;67284;44.782;10.282;2023-04-30T09:07:43;31.92;;;20.73;;
26157;SDS011;67284;44.782;10.282;2023-04-30T09:12:40;30.95;;;20.83;;
26157;SDS011;67284;44.782;10.282;2023-04-30T09:17:33;30.70;;;21.27;;
26157;SDS011;67284;44.782;10.282;2023-04-30T09:22:25;29.23;;;21.73;;
26157;SDS011;67284;44.782;10.282;2023-04-30T09:27:18;26.80;;;19.45;;
26157;SDS011;67284;44.782;10.282;2023-04-30T09:32:13;29.65;;;22.48;;
26157;SDS011;67284;44.782;10.282;2023-04-30T09:37:05;30.95;;;21.80;;
26157;SDS011;67284;44.782;10.282;2023-04-30T09:42:07;26.67;;;20.33;;
26157;SDS011;67284;44.782;10.282;2023-04-30T09:47:00;24.55;;;19.48;;
26157;SDS011;67284;44.782;10.282;2023-04-30T09:51:57;22.00;;;15.93;;
26157;SDS011;67284;44.782;10.282;2023-04-30T09:56:51;21.17;;;15.38;;
26157;SDS011;67284;44.782;10.282;2023-04-30T10:01:44;21.65;;;15.70;;
26157;SDS011;67284;44.782;10.282;2023-04-30T10:06:36;19.23;;;13.85;;
26157;SDS011;67284;44.782;10.282;2023-04-30T10:11:29;20.77;;;14.98;;
26157;SDS011;67284;44.782;10.282;2023-04-30T10:16:26;17.23;;;12.90;;
26157;SDS011;67284;44.782;10.282;2023-04-30T10:21:25;19.70;;;12.95;;
26157;SDS011;67284;44.782;10.282;2023-04-30T10:26:18;16.00;;;12.02;;
26157;SDS011;67284;44.782;10.282;2023-04-30T10:31:10;17.00;;;11.80;;
26157;SDS011;67284;44.782;10.282;2023-04-30T10:36:04;20.63;;;13.80;;
26157;SDS011;67284;44.782;10.282;2023-04-30T10:40:59;18.23;;;13.27;;
26157;SDS011;67284;44.782;10.282;2023-04-30T10:45:52;20.85;;;13.05;;
26157;SDS011;67284;44.782;10.282;2023-04-30T10:50:44;17.42;;;12.40;;
26157;SDS011;67284;44.782;10.282;2023-04-30T10:55:46;21.02;;;13.10;;
26157;SDS011;67284;44.782;10.282;2023-04-30T11:00:39;17.77;;;12.50;;
26157;SDS011;67284;44.782;10.282;2023-04-30T11:05:50;18.63;;;12.80;;
26157;SDS011;67284;44.782;10.282;2023-04-30T11:10:55;21.20;;;13.15;;
26157;SDS011;67284;44.782;10.282;2023-04-30T11:15:50;19.58;;;12.30;;
26157;SDS011;67284;44.782;10.282;2023-04-30T11:20:48;13.05;;;11.20;;
26157;SDS011;67284;44.782;10.282;2023-04-30T11:25:43;19.50;;;12.35;;
26157;SDS011;67284;44.782;10.282;2023-04-30T11:30:36;15.27;;;12.02;;
26157;SDS011;67284;44.782;10.282;2023-04-30T11:35:29;14.73;;;11.65;;
26157;SDS011;67284;44.782;10.282;2023-04-30T11:40:22;20.42;;;13.77;;
26157;SDS011;67284;44.782;10.282;2023-04-30T11:45:15;15.82;;;12.25;;
26157;SDS011;67284;44.782;10.282;2023-04-30T11:50:15;15.55;;;12.30;;
26157;SDS011;67284;44.782;10.282;2023-04-30T11:55:13;16.90;;;11.15;;
26157;SDS011;67284;44.782;10.282;2023-04-30T12:00:08;18.20;;;11.82;;
26157;SDS011;67284;44.782;10.282;2023-04-30T12:05:02;16.20;;;12.32;;
26157;SDS011;67284;44.782;10.282;2023-04-30T12:09:54;19.02;;;12.73;;
26157;SDS011;67284;44.782;10.282;2023-04-30T12:14:47;18.98;;;12.65;;
26157;SDS011;67284;44.782;10.282;2023-04-30T12:19:39;19.45;;;12.75;;
26157;SDS011;67284;44.782;10.282;2023-04-30T12:24:31;17.27;;;11.68;;
26157;SDS011;67284;44.782;10.282;2023-04-30T12:29:23;15.77;;;11.52;;
26157;SDS011;67284;44.782;10.282;2023-04-30T12:34:16;17.70;;;10.30;;
26157;SDS011;67284;44.782;10.282;2023-04-30T12:39:09;20.15;;;14.23;;
26157;SDS011;67284;44.782;10.282;2023-04-30T12:49:25;15.70;;;10.75;;
26157;SDS011;67284;44.782;10.282;2023-04-30T12:54:29;16.55;;;11.88;;
26157;SDS011;67284;44.782;10.282;2023-04-30T12:59:21;12.30;;;9.80;;
26157;SDS011;67284;44.782;10.282;2023-04-30T13:04:13;16.23;;;10.88;;
26157;SDS011;67284;44.782;10.282;2023-04-30T13:09:05;15.65;;;11.10;;
26157;SDS011;67284;44.782;10.282;2023-04-30T13:13:57;16.50;;;10.23;;
26157;SDS011;67284;44.782;10.282;2023-04-30T13:18:49;15.63;;;10.93;;
26157;SDS011;67284;44.782;10.282;2023-04-30T13:23:40;19.45;;;11.65;;
26157;SDS011;67284;44.782;10.282;2023-04-30T13:28:44;13.23;;;11.05;;
26157;SDS011;67284;44.782;10.282;2023-04-30T13:33:36;14.25;;;10.93;;
26157;SDS011;67284;44.782;10.282;2023-04-30T13:38:27;15.65;;;12.88;;
26157;SDS011;67284;44.782;10.282;2023-04-30T13:43:20;12.25;;;10.35;;
26157;SDS011;67284;44.782;10.282;2023-04-30T13:48:12;15.20;;;11.43;;
26157;SDS011;67284;44.782;10.282;2023-04-30T13:53:04;13.13;;;10.98;;
26157;SDS011;67284;44.782;10.282;2023-04-30T13:57:56;18.63;;;10.75;;
26157;SDS011;67284;44.782;10.282;2023-04-30T14:02:48;13.10;;;10.57;;
26157;SDS011;67284;44.782;10.282;2023-04-30T14:07:40;13.73;;;10.07;;
26157;SDS011;67284;44.782;10.282;2023-04-30T14:12:32;12.90;;;9.90;;
26157;SDS011;67284;44.782;10.282;2023-04-30T14:17:24;14.80;;;10.05;;
26157;SDS011;67284;44.782;10.282;2023-04-30T14:22:20;13.90;;;10.38;;
26157;SDS011;67284;44.782;10.282;2023-04-30T14:27:12;16.05;;;9.68;;
26157;SDS011;67284;44.782;10.282;2023-04-30T14:32:05;17.95;;;11.10;;
26157;SDS011;67284;44.782;10.282;2023-04-30T14:36:57;14.63;;;10.98;;
26157;SDS011;67284;44.782;10.282;2023-04-30T14:41:49;12.48;;;9.45;;
26157;SDS011;67284;44.782;10.282;2023-04-30T14:46:43;15.90;;;10.35;;
26157;SDS011;67284;44.782;10.282;2023-04-30T14:51:35;13.07;;;8.63;;
26157;SDS011;67284;44.782;10.282;2023-04-30T14:56:27;11.45;;;8.38;;
26157;SDS011;67284;44.782;10.282;2023-04-30T15:01:19;11.10;;;7.80;;
26157;SDS011;67284;44.782;10.282;2023-04-30T15:06:11;11.13;;;8.70;;
26157;SDS011;67284;44.782;10.282;2023-04-30T15:11:04;11.88;;;9.45;;
26157;SDS011;67284;44.782;10.282;2023-04-30T15:15:57;14.88;;;9.20;;
26157;SDS011;67284;44.782;10.282;2023-04-30T15:20:49;17.77;;;10.60;;
26157;SDS011;67284;44.782;10.282;2023-04-30T15:25:41;13.88;;;10.10;;
26157;SDS011;67284;44.782;10.282;2023-04-30T15:30:34;14.45;;;9.65;;
26157;SDS011;67284;44.782;10.282;2023-04-30T15:35:26;11.25;;;9.43;;
26157;SDS011;67284;44.782;10.282;2023-04-30T15:40:18;9.63;;;8.52;;
26157;SDS011;67284;44.782;10.282;2023-04-30T15:45:10;11.25;;;8.18;;
26157;SDS011;67284;44.782;10.282;2023-04-30T15:50:02;11.30;;;9.88;;
26157;SDS011;67284;44.782;10.282;2023-04-30T15:54:54;12.93;;;8.48;;
26157;SDS011;67284;44.782;10.282;2023-04-30T15:59:46;8.43;;;5.93;;
26157;SDS011;67284;44.782;10.282;2023-04-30T16:04:38;12.25;;;6.20;;
26157;SDS011;67284;44.782;10.282;2023-04-30T16:09:30;7.47;;;6.00;;
26157;SDS011;67284;44.782;10.282;2023-04-30T16:14:25;9.52;;;5.75;;
26157;SDS011;67284;44.782;10.282;2023-04-30T16:19:17;8.05;;;5.82;;
26157;SDS011;67284;44.782;10.282;2023-04-30T16:24:09;5.72;;;5.13;;
26157;SDS011;67284;44.782;10.282;2023-04-30T16:29:01;8.23;;;5.95;;
26157;SDS011;67284;44.782;10.282;2023-04-30T16:33:54;7.18;;;5.75;;
26157;SDS011;67284;44.782;10.282;2023-04-30T16:38:46;7.63;;;5.35;;
26157;SDS011;67284;44.782;10.282;2023-04-30T16:43:38;6.57;;;5.20;;
26157;SDS011;67284;44.782;10.282;2023-04-30T16:48:30;11.45;;;6.47;;
26157;SDS011;67284;44.782;10.282;2023-04-30T16:53:22;7.55;;;4.75;;
26157;SDS011;67284;44.782;10.282;2023-04-30T16:58:14;5.60;;;5.10;;
26157;SDS011;67284;44.782;10.282;2023-04-30T17:03:07;8.05;;;4.75;;
26157;SDS011;67284;44.782;10.282;2023-04-30T17:08:00;6.60;;;4.75;;
26157;SDS011;67284;44.782;10.282;2023-04-30T17:12:52;6.05;;;4.50;;
26157;SDS011;67284;44.782;10.282;2023-04-30T17:17:46;8.00;;;5.15;;
26157;SDS011;67284;44.782;10.282;2023-04-30T17:22:38;6.97;;;5.47;;
26157;SDS011;67284;44.782;10.282;2023-04-30T17:27:30;6.68;;;5.07;;
26157;SDS011;67284;44.782;10.282;2023-04-30T17:32:22;10.35;;;5.25;;
26157;SDS011;67284;44.782;10.282;2023-04-30T17:37:16;9.45;;;4.47;;
26157;SDS011;67284;44.782;10.282;2023-04-30T17:42:08;6.50;;;5.15;;
26157;SDS011;67284;44.782;10.282;2023-04-30T17:47:00;7.07;;;5.35;;
26157;SDS011;67284;44.782;10.282;2023-04-30T17:51:52;8.07;;;5.18;;
26157;SDS011;67284;44.782;10.282;2023-04-30T17:56:44;8.02;;;5.38;;
26157;SDS011;67284;44.782;10.282;2023-04-30T18:01:36;7.13;;;4.80;;
26157;SDS011;67284;44.782;10.282;2023-04-30T18:06:28;7.28;;;4.75;;
26157;SDS011;67284;44.782;10.282;2023-04-30T18:11:20;5.10;;;3.92;;
26157;SDS011;67284;44.782;10.282;2023-04-30T18:16:12;16.08;;;5.10;;
26157;SDS011;67284;44.782;10.282;2023-04-30T18:21:04;6.85;;;4.63;;
26157;SDS011;67284;44.782;10.282;2023-04-30T18:25:56;6.13;;;4.68;;
26157;SDS011;67284;44.782;10.282;2023-04-30T18:30:48;6.57;;;4.97;;
26157;SDS011;67284;44.782;10.282;2023-04-30T18:35:40;9.27;;;6.20;;
26157;SDS011;67284;44.782;10.282;2023-04-30T18:40:32;7.05;;;5.10;;
26157;SDS011;67284;44.782;10.282;2023-04-30T18:45:24;5.00;;;4.50;;
26157;SDS011;67284;44.782;10.282;2023-04-30T18:50:17;9.30;;;5.30;;
26157;SDS011;67284;44.782;10.282;2023-04-30T18:55:10;7.63;;;4.65;;
26157;SDS011;67284;44.782;10.282;2023-04-30T19:00:05;9.52;;;5.35;;
26157;SDS011;67284;44.782;10.282;2023-04-30T19:04:58;6.93;;;5.05;;
26157;SDS011;67284;44.782;10.282;2023-04-30T19:09:50;6.50;;;5.13;;
26157;SDS011;67284;44.782;10.282;2023-04-30T19:14:44;10.93;;;5.57;;
26157;SDS011;67284;44.782;10.282;2023-04-30T19:19:36;8.40;;;6.25;;
26157;SDS011;67284;44.782;10.282;2023-04-30T19:24:28;10.50;;;6.13;;
26157;SDS011;67284;44.782;10.282;2023-04-30T19:29:20;8.68;;;6.03;;
26157;SDS011;67284;44.782;10.282;2023-04-30T19:34:12;6.30;;;5.70;;
26157;SDS011;67284;44.782;10.282;2023-04-30T19:39:04;8.40;;;5.47;;
26157;SDS011;67284;44.782;10.282;2023-04-30T19:44:00;10.35;;;7.00;;
26157;SDS011;67284;44.782;10.282;2023-04-30T19:48:52;8.05;;;6.93;;
26157;SDS011;67284;44.782;10.282;2023-04-30T19:53:44;9.63;;;6.90;;
26157;SDS011;67284;44.782;10.282;2023-04-30T19:58:36;9.10;;;7.13;;
26157;SDS011;67284;44.782;10.282;2023-04-30T20:03:27;6.82;;;6.13;;
26157;SDS011;67284;44.782;10.282;2023-04-30T20:08:19;9.75;;;6.18;;
26157;SDS011;67284;44.782;10.282;2023-04-30T20:13:12;7.07;;;5.57;;
26157;SDS011;67284;44.782;10.282;2023-04-30T20:18:04;8.15;;;6.78;;
26157;SDS011;67284;44.782;10.282;2023-04-30T20:22:56;7.75;;;6.60;;
26157;SDS011;67284;44.782;10.282;2023-04-30T20:27:48;8.90;;;6.50;;
26157;SDS011;67284;44.782;10.282;2023-04-30T20:32:40;7.28;;;6.00;;
26157;SDS011;67284;44.782;10.282;2023-04-30T20:37:32;7.35;;;6.07;;
26157;SDS011;67284;44.782;10.282;2023-04-30T20:42:24;5.95;;;5.35;;
26157;SDS011;67284;44.782;10.282;2023-04-30T20:47:17;7.05;;;5.93;;
26157;SDS011;67284;44.782;10.282;2023-04-30T20:52:09;10.52;;;7.03;;
26157;SDS011;67284;44.782;10.282;2023-04-30T20:57:10;16.35;;;8.15;;
26157;SDS011;67284;44.782;10.282;2023-04-30T21:02:02;9.60;;;7.13;;
26157;SDS011;67284;44.782;10.282;2023-04-30T21:06:55;8.63;;;6.85;;
26157;SDS011;67284;44.782;10.282;2023-04-30T21:11:47;10.43;;;7.80;;
26157;SDS011;67284;44.782;10.282;2023-04-30T21:16:39;10.35;;;7.97;;
26157;SDS011;67284;44.782;10.282;2023-04-30T21:21:31;10.10;;;8.00;;
26157;SDS011;67284;44.782;10.282;2023-04-30T21:26:23;9.05;;;6.45;;
26157;SDS011;67284;44.782;10.282;2023-04-30T21:31:14;8.63;;;7.00;;
26157;SDS011;67284;44.782;10.282;2023-04-30T21:36:07;11.13;;;7.78;;
26157;SDS011;67284;44.782;10.282;2023-04-30T21:40:58;10.13;;;7.60;;
26157;SDS011;67284;44.782;10.282;2023-04-30T21:45:50;10.52;;;8.57;;
26157;SDS011;67284;44.782;10.282;2023-04-30T21:50:43;11.38;;;7.32;;
26157;SDS011;67284;44.782;10.282;2023-04-30T21:55:38;9.45;;;7.43;;
26157;SDS011;67284;44.782;10.282;2023-04-30T22:00:29;9.85;;;7.43;;
26157;SDS011;67284;44.782;10.282;2023-04-30T22:05:21;10.02;;;8.50;;
26157;SDS011;67284;44.782;10.282;2023-04-30T22:10:13;8.38;;;7.50;;
26157;SDS011;67284;44.782;10.282;2023-04-30T22:15:06;11.93;;;8.05;;
26157;SDS011;67284;44.782;10.282;2023-04-30T22:19:58;9.85;;;8.50;;
26157;SDS011;67284;44.782;10.282;2023-04-30T22:24:50;9.65;;;7.95;;
26157;SDS011;67284;44.782;10.282;2023-04-30T22:29:42;12.55;;;8.90;;
26157;SDS011;67284;44.782;10.282;2023-04-30T22:34:37;10.13;;;8.90;;
26157;SDS011;67284;44.782;10.282;2023-04-30T22:39:31;12.23;;;10.07;;
26157;SDS011;67284;44.782;10.282;2023-04-30T22:44:23;10.80;;;8.13;;
26157;SDS011;67284;44.782;10.282;2023-04-30T22:49:16;11.57;;;8.52;;
26157;SDS011;67284;44.782;10.282;2023-04-30T22:54:21;11.45;;;9.48;;
26157;SDS011;67284;44.782;10.282;2023-04-30T22:59:14;10.98;;;8.18;;
26157;SDS011;67284;44.782;10.282;2023-04-30T23:04:06;10.02;;;8.43;;
26157;SDS011;67284;44.782;10.282;2023-04-30T23:09:00;11.57;;;7.32;;
26157;SDS011;67284;44.782;10.282;2023-04-30T23:13:52;9.40;;;7.43;;
26157;SDS011;67284;44.782;10.282;2023-04-30T23:18:43;9.35;;;7.57;;
26157;SDS011;67284;44.782;10.282;2023-04-30T23:23:37;14.23;;;8.30;;
26157;SDS011;67284;44.782;10.282;2023-04-30T23:28:29;13.45;;;9.02;;
26157;SDS011;67284;44.782;10.282;2023-04-30T23:33:21;11.45;;;9.30;;
26157;SDS011;67284;44.782;10.282;2023-04-30T23:38:13;11.25;;;8.85;;
26157;SDS011;67284;44.782;10.282;2023-04-30T23:43:06;14.07;;;8.45;;
26157;SDS011;67284;44.782;10.282;2023-04-30T23:47:57;14.25;;;11.00;;
26157;SDS011;67284;44.782;10.282;2023-04-30T23:52:49;12.35;;;9.48;;
26157;SDS011;67284;44.782;10.282;2023-04-30T23:57:42;11.02;;;9.65;;
